Time;durP1;ratioP1;P1;durP2;ratioP2;P2;SDS_P1;SDS_P2;PMS_P1;PMS_P2;Temp;Humidity;BMP_temperature;BMP_pressure;BME280_temperature;BME280_humidity;BME280_pressure;Samples;Min_cycle;Max_cycle;Signal;HPM_P1;HPM_P2
2023/09/23 00:00:49;;;;;;;0.60;0.60;;;14.30;99.90;;;14.54;79.92;100083.75;4914614;29;20717;-66
2023/09/23 00:03:16;;;;;;;0.47;0.47;;;14.30;99.90;;;14.50;79.68;100079.78;4926844;29;20803;-67
2023/09/23 00:05:44;;;;;;;0.50;0.50;;;14.30;99.90;;;14.50;79.42;100087.66;4928748;29;20645;-67
2023/09/23 00:08:11;;;;;;;0.63;0.50;;;14.30;99.90;;;14.50;79.70;100088.47;4912885;29;20637;-65
2023/09/23 00:10:38;;;;;;;0.40;0.40;;;14.30;99.90;;;14.51;79.25;100087.50;4926868;29;20626;-71
2023/09/23 00:13:06;;;;;;;0.50;0.50;;;14.30;99.90;;;14.52;78.78;100096.19;4913917;29;20630;-67
2023/09/23 00:15:35;;;;;;;0.40;0.40;;;14.30;99.90;;;14.50;78.13;100096.31;4914558;29;20801;-67
2023/09/23 00:18:02;;;;;;;0.67;0.63;;;14.30;99.90;;;14.48;78.34;100086.97;4912230;29;20646;-68
2023/09/23 00:20:29;;;;;;;0.40;0.40;;;14.20;99.90;;;14.48;78.61;100092.22;4914777;29;20633;-66
2023/09/23 00:22:56;;;;;;;0.50;0.50;;;14.30;99.90;;;14.47;78.26;100098.44;4914111;29;20626;-66
2023/09/23 00:25:23;;;;;;;0.50;0.50;;;14.30;99.90;;;14.46;77.50;100096.81;4911607;29;21286;-66
2023/09/23 00:27:54;;;;;;;0.40;0.40;;;14.20;99.90;;;14.47;77.93;100098.44;4912121;29;21006;-67
2023/09/23 00:30:26;;;;;;;0.50;0.50;;;14.20;99.90;;;14.45;77.83;100103.00;4907084;29;20626;-66
2023/09/23 00:32:53;;;;;;;0.40;0.40;;;14.30;99.90;;;14.43;77.67;100099.72;4911840;29;20646;-67
2023/09/23 00:35:20;;;;;;;0.50;0.50;;;14.20;99.90;;;14.39;78.13;100099.19;4907759;29;21039;-69
2023/09/23 00:37:49;;;;;;;0.47;0.47;;;14.20;99.90;;;14.39;78.72;100107.06;4912881;29;20712;-67
2023/09/23 00:40:38;;;;;;;0.57;0.57;;;14.20;99.90;;;14.37;78.45;100111.63;4905858;29;20669;-67
2023/09/23 00:43:11;;;;;;;0.60;0.60;;;14.20;99.90;;;14.40;79.09;100107.88;4912921;29;20637;-67
2023/09/23 00:45:48;;;;;;;0.70;0.53;;;14.20;99.90;;;14.41;78.68;100106.91;4913349;29;20685;-67
2023/09/23 00:48:20;;;;;;;0.50;0.50;;;14.20;99.90;;;14.41;78.55;100107.75;4913249;29;20981;-66
2023/09/23 00:50:50;;;;;;;0.50;0.50;;;14.20;99.90;;;14.36;78.86;100111.75;4911343;29;20654;-69
2023/09/23 00:53:17;;;;;;;0.50;0.50;;;14.20;99.90;;;14.32;79.09;100113.03;4903201;29;20761;-67
2023/09/23 00:55:52;;;;;;;0.50;0.50;;;14.10;99.90;;;14.23;79.93;100109.44;4913388;29;20653;-67
2023/09/23 00:58:21;;;;;;;0.50;0.50;;;14.10;99.90;;;14.18;79.95;100110.88;4911131;29;20614;-68
2023/09/23 01:00:52;;;;;;;0.50;0.50;;;14.00;99.90;;;14.13;80.58;100113.94;4912982;29;20662;-67
2023/09/23 01:03:20;;;;;;;0.57;0.57;;;14.00;99.90;;;14.10;80.80;100118.66;4924179;29;20673;-67
2023/09/23 01:05:50;;;;;;;0.40;0.40;;;13.90;99.90;;;14.09;81.01;100111.72;4928168;29;20652;-69
2023/09/23 01:08:20;;;;;;;1.17;0.90;;;13.90;99.90;;;14.03;81.51;100118.41;4910807;29;20642;-67
2023/09/23 01:10:48;;;;;;;0.50;0.50;;;13.80;99.90;;;14.00;81.55;100119.50;4914363;29;20660;-67
2023/09/23 01:13:20;;;;;;;1.63;0.50;;;13.80;99.90;;;13.98;82.42;100115.38;4908957;29;20757;-68
2023/09/23 01:15:47;;;;;;;0.50;0.50;;;13.80;99.90;;;13.90;82.52;100117.91;4909559;29;20716;-68
2023/09/23 01:18:14;;;;;;;0.60;0.60;;;13.70;99.90;;;13.89;82.78;100122.31;4912033;29;20629;-68
2023/09/23 01:20:42;;;;;;;0.50;0.50;;;13.70;99.90;;;13.81;83.26;100122.19;4894554;29;21471;-68
2023/09/23 01:23:10;;;;;;;2.00;0.47;;;13.70;99.90;;;13.75;83.64;100128.03;4912825;29;20662;-70
2023/09/23 01:25:38;;;;;;;0.50;0.50;;;13.60;99.90;;;13.72;83.65;100136.16;4890621;29;20737;-68
2023/09/23 01:28:11;;;;;;;0.53;0.53;;;13.50;99.90;;;13.69;84.11;100135.63;4924876;29;20649;-67
2023/09/23 01:30:43;;;;;;;0.50;0.50;;;13.50;99.90;;;13.71;83.68;100146.78;4903620;29;20690;-67
2023/09/23 01:33:14;;;;;;;0.53;0.50;;;13.50;99.90;;;13.75;83.90;100143.75;4910905;29;20658;-66
2023/09/23 01:35:42;;;;;;;1.23;0.93;;;13.60;99.90;;;13.80;84.39;100144.13;4908922;29;20670;-67
2023/09/23 01:38:09;;;;;;;0.87;0.87;;;13.60;99.90;;;13.88;84.60;100146.84;4927354;29;21030;-66
2023/09/23 01:40:39;;;;;;;0.80;0.80;;;13.70;99.90;;;13.95;84.68;100144.50;4911348;29;20756;-66
2023/09/23 01:43:11;;;;;;;0.63;0.63;;;13.70;99.90;;;14.02;84.00;100142.97;4911195;29;20669;-66
2023/09/23 01:45:38;;;;;;;0.60;0.60;;;13.80;99.90;;;14.08;84.02;100152.88;4913696;29;20649;-66
2023/09/23 01:48:07;;;;;;;0.80;0.60;;;13.90;99.90;;;14.14;83.16;100156.75;4909032;29;20745;-65
2023/09/23 01:50:34;;;;;;;0.70;0.70;;;13.90;99.90;;;14.17;82.94;100153.81;4912886;29;20634;-65
2023/09/23 01:53:01;;;;;;;6.23;0.70;;;13.90;99.90;;;14.20;82.58;100162.22;4906171;29;20650;-66
2023/09/23 01:55:28;;;;;;;0.70;0.70;;;14.00;99.90;;;14.26;82.64;100166.91;4910730;29;20668;-68
2023/09/23 01:57:56;;;;;;;0.60;0.60;;;14.10;99.90;;;14.31;82.44;100169.13;4920718;29;20745;-68
2023/09/23 02:00:26;;;;;;;2.60;0.97;;;14.10;99.90;;;14.32;82.64;100168.97;4911181;29;20662;-71
2023/09/23 02:02:54;;;;;;;0.70;0.70;;;14.10;99.90;;;14.30;81.96;100180.56;4924477;29;21073;-70
2023/09/23 02:05:24;;;;;;;0.70;0.70;;;14.10;99.90;;;14.28;82.17;100180.69;4915256;29;20657;-67
2023/09/23 02:07:51;;;;;;;0.70;0.70;;;14.10;99.90;;;14.28;82.14;100185.94;4926354;29;20625;-66
2023/09/23 02:10:18;;;;;;;0.57;0.57;;;14.10;99.90;;;14.29;82.08;100192.88;4912083;29;20625;-69
2023/09/23 02:12:45;;;;;;;0.87;0.87;;;14.10;99.90;;;14.29;81.82;100195.50;4912046;29;20630;-69
2023/09/23 02:15:15;;;;;;;0.70;0.70;;;14.10;99.90;;;14.28;82.30;100203.47;4910629;29;20701;-70
2023/09/23 02:17:47;;;;;;;0.70;0.70;;;14.10;99.90;;;14.22;82.71;100204.91;4912960;29;20634;-67
2023/09/23 02:20:19;;;;;;;0.70;0.67;;;14.00;99.90;;;14.21;82.84;100199.78;4909951;29;20669;-69
2023/09/23 02:22:50;;;;;;;0.70;0.70;;;14.00;99.90;;;14.21;82.96;100205.84;4912356;29;20685;-68
2023/09/23 02:25:17;;;;;;;0.70;0.70;;;14.00;99.90;;;14.24;83.21;100215.25;4910092;29;20662;-67
2023/09/23 02:27:46;;;;;;;0.70;0.70;;;14.00;99.90;;;14.24;82.80;100210.81;4904313;29;21262;-67
2023/09/23 02:30:14;;;;;;;1.00;0.97;;;14.10;99.90;;;14.24;82.90;100210.81;4910596;29;20669;-70
2023/09/23 02:32:44;;;;;;;0.70;0.70;;;14.00;99.90;;;14.22;83.02;100211.94;4906823;29;20633;-69
2023/09/23 02:35:12;;;;;;;0.90;0.90;;;14.00;99.90;;;14.20;83.08;100214.72;4927096;29;20657;-68
2023/09/23 02:37:42;;;;;;;0.83;0.83;;;14.00;99.90;;;14.20;82.74;100206.00;4904889;29;20690;-67
2023/09/23 02:40:14;;;;;;;0.60;0.60;;;14.00;99.90;;;14.16;82.24;100204.63;4923946;29;20669;-67
2023/09/23 02:42:45;;;;;;;0.67;0.67;;;14.00;99.90;;;14.16;82.72;100209.88;4921432;29;20683;-67
2023/09/23 02:45:16;;;;;;;3.33;0.83;;;14.00;99.90;;;14.15;82.45;100210.84;4923741;29;20666;-68
2023/09/23 02:47:44;;;;;;;0.70;0.70;;;13.90;99.90;;;14.13;82.33;100213.63;4913167;29;20625;-67
2023/09/23 02:50:13;;;;;;;0.67;0.67;;;13.90;99.90;;;14.10;82.77;100215.72;4911587;29;21068;-66
2023/09/23 02:52:44;;;;;;;1.53;0.73;;;13.90;99.90;;;14.08;82.81;100221.06;4916457;29;20633;-67
2023/09/23 02:55:14;;;;;;;0.70;0.70;;;13.90;99.90;;;14.03;82.61;100226.75;4913813;29;21305;-67
2023/09/23 02:57:54;;;;;;;0.60;0.60;;;13.80;99.90;;;13.98;82.83;100226.38;4915390;29;21059;-70
2023/09/23 03:00:29;;;;;;;0.80;0.80;;;13.80;99.90;;;13.92;83.06;100237.44;4906632;29;20768;-67
2023/09/23 03:02:58;;;;;;;0.80;0.80;;;13.70;99.90;;;13.89;83.38;100231.63;4906417;29;20626;-65
2023/09/23 03:05:31;;;;;;;0.77;0.77;;;13.70;99.90;;;13.87;83.73;100237.00;4914875;29;20650;-67
2023/09/23 03:08:00;;;;;;;0.70;0.70;;;13.60;99.90;;;13.85;83.88;100241.56;4912443;29;20656;-68
2023/09/23 03:10:39;;;;;;;0.60;0.60;;;13.60;99.90;;;13.84;83.38;100239.91;4912705;29;20668;-65
2023/09/23 03:13:07;;;;;;;0.77;0.77;;;13.70;99.90;;;13.83;84.05;100248.75;4904793;29;20630;-66
2023/09/23 03:15:50;;;;;;;0.73;0.73;;;13.60;99.90;;;13.81;84.62;100237.56;4913969;29;20768;-67
2023/09/23 03:18:33;;;;;;;0.73;0.73;;;13.60;99.90;;;13.82;84.48;100236.59;4915242;29;20633;-67
2023/09/23 03:21:10;;;;;;;0.60;0.60;;;13.60;99.90;;;13.78;85.04;100248.34;4911613;29;21155;-67
2023/09/23 03:23:39;;;;;;;0.70;0.70;;;13.60;99.90;;;13.80;84.35;100253.44;4914450;29;20704;-69
2023/09/23 03:26:08;;;;;;;0.53;0.53;;;13.60;99.90;;;13.77;84.93;100251.09;4912900;29;20740;-69
2023/09/23 03:28:38;;;;;;;0.60;0.60;;;13.60;99.90;;;13.74;84.50;100264.47;4915029;29;20630;-67
2023/09/23 03:31:08;;;;;;;0.70;0.70;;;13.60;99.90;;;13.66;85.51;100262.56;4911392;29;21148;-67
2023/09/23 03:33:37;;;;;;;0.60;0.60;;;13.50;99.90;;;13.62;85.96;100271.66;4898632;29;21006;-66
2023/09/23 03:36:05;;;;;;;0.50;0.50;;;13.40;99.90;;;13.50;86.18;100264.88;4927903;29;20657;-66
2023/09/23 03:38:33;;;;;;;0.50;0.50;;;13.40;99.90;;;13.41;86.92;100272.75;4926638;29;20652;-66
2023/09/23 03:41:02;;;;;;;0.60;0.60;;;13.20;99.90;;;13.29;88.07;100279.91;4915781;29;20742;-66
2023/09/23 03:43:29;;;;;;;0.47;0.47;;;13.10;99.90;;;13.21;88.52;100282.38;4912715;29;20637;-66
2023/09/23 03:45:56;;;;;;;0.80;0.80;;;13.00;99.90;;;13.11;89.37;100277.16;4907311;29;20642;-71
2023/09/23 03:48:23;;;;;;;0.60;0.60;;;12.90;99.90;;;13.07;89.73;100274.94;4904567;29;20649;-66
2023/09/23 03:50:54;;;;;;;0.67;0.67;;;12.90;99.90;;;13.01;89.66;100281.47;4908660;29;21195;-66
2023/09/23 03:53:21;;;;;;;0.80;0.80;;;12.90;99.90;;;12.97;89.95;100282.72;4909503;29;20742;-65
2023/09/23 03:55:54;;;;;;;0.50;0.50;;;12.80;99.90;;;12.93;90.13;100283.09;4914586;29;20706;-69
2023/09/23 03:58:22;;;;;;;0.43;0.43;;;12.70;99.90;;;12.93;90.22;100288.34;4912964;29;21350;-67
2023/09/23 04:00:49;;;;;;;0.60;0.60;;;12.70;99.90;;;12.91;89.84;100282.41;4915762;29;20665;-68
2023/09/23 04:03:17;;;;;;;0.70;0.70;;;12.80;99.90;;;12.84;90.38;100283.94;4895430;29;20649;-67
2023/09/23 04:05:57;;;;;;;1.43;0.50;;;12.70;99.90;;;12.76;90.36;100291.59;4913817;29;20661;-63
2023/09/23 04:08:25;;;;;;;0.40;0.40;;;12.60;99.90;;;12.75;91.05;100303.03;4912289;29;20652;-65
2023/09/23 04:10:53;;;;;;;0.70;0.50;;;12.60;99.90;;;12.75;91.50;100310.91;4914873;29;20698;-66
2023/09/23 04:13:20;;;;;;;0.60;0.60;;;12.50;99.90;;;12.74;90.99;100309.22;4912983;29;20653;-68
2023/09/23 04:15:47;;;;;;;0.60;0.60;;;12.60;99.90;;;12.73;91.06;100323.28;4914979;29;21100;-66
2023/09/23 04:18:14;;;;;;;0.50;0.50;;;12.60;99.90;;;12.71;91.11;100328.66;4925151;29;20649;-67
2023/09/23 04:20:43;;;;;;;0.50;0.50;;;12.50;99.90;;;12.69;91.48;100332.38;4911791;29;20741;-68
2023/09/23 04:23:11;;;;;;;0.63;0.63;;;12.50;99.90;;;12.65;91.43;100334.41;4913122;29;20653;-67
2023/09/23 04:25:38;;;;;;;0.63;0.63;;;12.50;99.90;;;12.64;92.22;100340.59;4911075;29;20791;-68
2023/09/23 04:28:05;;;;;;;1.87;0.50;;;12.50;99.90;;;12.68;91.98;100347.22;4908217;29;21987;-67
2023/09/23 04:30:32;;;;;;;0.50;0.50;;;12.50;99.90;;;12.74;92.19;100340.63;4909576;29;20741;-69
2023/09/23 04:33:00;;;;;;;0.53;0.53;;;12.50;99.90;;;12.79;91.45;100347.16;4906876;29;20646;-68
2023/09/23 04:35:29;;;;;;;1.97;0.50;;;12.60;99.90;;;12.82;90.51;100340.84;4908350;29;20665;-65
2023/09/23 04:37:56;;;;;;;1.17;0.60;;;12.60;99.90;;;12.79;89.80;100349.78;4910288;29;21211;-71
2023/09/23 04:40:23;;;;;;;0.50;0.50;;;12.60;99.90;;;12.73;89.80;100344.22;4907365;29;20679;-66
2023/09/23 04:42:50;;;;;;;0.43;0.43;;;12.60;99.90;;;12.66;90.17;100345.69;4909843;29;20629;-68
2023/09/23 04:45:19;;;;;;;0.50;0.50;;;12.50;99.90;;;12.63;90.90;100353.84;4912478;29;20646;-65
2023/09/23 04:47:50;;;;;;;0.40;0.40;;;12.50;99.90;;;12.59;91.21;100360.25;4914438;29;20626;-68
2023/09/23 04:50:17;;;;;;;0.60;0.60;;;12.50;99.90;;;12.59;91.23;100363.72;4913385;29;20637;-67
2023/09/23 04:52:46;;;;;;;0.50;0.50;;;12.40;99.90;;;12.56;91.57;100363.16;4911832;29;21291;-67
2023/09/23 04:55:13;;;;;;;0.53;0.53;;;12.40;99.90;;;12.54;91.53;100355.44;4904879;29;21248;-67
2023/09/23 04:57:40;;;;;;;0.67;0.67;;;12.40;99.90;;;12.50;91.42;100348.78;4913977;29;20629;-67
2023/09/23 05:00:14;;;;;;;0.47;0.47;;;12.40;99.90;;;12.53;91.75;100356.38;4911747;29;20710;-71
2023/09/23 05:02:41;;;;;;;0.60;0.60;;;12.40;99.90;;;12.52;91.75;100367.81;4911007;29;20748;-67
2023/09/23 05:05:09;;;;;;;0.50;0.50;;;12.40;99.90;;;12.56;92.22;100384.09;4911204;29;20780;-69
2023/09/23 05:07:37;;;;;;;0.60;0.60;;;12.40;99.90;;;12.60;91.82;100383.72;4924283;29;20634;-68
2023/09/23 05:10:06;;;;;;;0.50;0.50;;;12.40;99.90;;;12.61;91.20;100384.50;4909141;29;20681;-68
2023/09/23 05:12:33;;;;;;;0.63;0.60;;;12.50;99.90;;;12.64;91.76;100392.94;4910823;29;20650;-67
2023/09/23 05:15:01;;;;;;;0.53;0.53;;;12.50;99.90;;;12.64;90.96;100389.50;4913367;29;20654;-70
2023/09/23 05:17:28;;;;;;;0.50;0.50;;;12.50;99.90;;;12.63;90.36;100391.28;4907485;29;20664;-67
2023/09/23 05:19:55;;;;;;;0.53;0.53;;;12.50;99.90;;;12.64;90.33;100386.88;4907188;29;20762;-68
2023/09/23 05:22:23;;;;;;;2.90;0.70;;;12.50;99.90;;;12.61;90.59;100397.59;4927402;29;20622;-67
2023/09/23 05:24:56;;;;;;;0.60;0.60;;;12.50;99.90;;;12.63;90.12;100393.09;4910499;29;20662;-65
2023/09/23 05:27:24;;;;;;;0.50;0.50;;;12.50;99.90;;;12.60;90.03;100396.78;4912448;29;21080;-68
2023/09/23 05:29:53;;;;;;;0.60;0.60;;;12.50;99.90;;;12.60;90.08;100396.78;4910992;29;20705;-67
2023/09/23 05:32:20;;;;;;;0.50;0.50;;;12.40;99.90;;;12.61;89.93;100394.97;4912655;29;20630;-67
2023/09/23 05:34:51;;;;;;;0.70;0.70;;;12.50;99.90;;;12.68;90.41;100403.97;4910781;29;20669;-68
2023/09/23 05:37:18;;;;;;;1.00;0.90;;;12.50;99.90;;;12.82;90.20;100412.31;4912632;29;20642;-67
2023/09/23 05:39:45;;;;;;;0.87;0.87;;;12.60;99.90;;;13.01;89.42;100417.66;4908682;29;20670;-68
2023/09/23 05:42:15;;;;;;;0.60;0.60;;;12.80;99.90;;;13.22;88.30;100422.91;4909504;29;21278;-69
2023/09/23 05:44:43;;;;;;;0.80;0.70;;;12.90;99.90;;;13.41;86.77;100428.22;4911317;29;20626;-68
2023/09/23 05:47:11;;;;;;;0.53;0.53;;;13.10;99.90;;;13.57;85.20;100425.06;4910843;29;20622;-67
2023/09/23 05:49:38;;;;;;;0.40;0.40;;;13.30;99.90;;;13.82;84.60;100428.03;4911808;29;20648;-66
2023/09/23 05:52:06;;;;;;;0.57;0.57;;;13.50;99.90;;;14.04;83.13;100429.56;4910491;29;20994;-66
2023/09/23 05:54:33;;;;;;;0.50;0.50;;;13.70;99.90;;;14.23;81.79;100429.56;4911522;29;21254;-66
2023/09/23 05:57:00;;;;;;;0.63;0.63;;;13.90;99.90;;;14.39;80.98;100429.06;4910782;29;21053;-66
2023/09/23 05:59:27;;;;;;;0.90;0.77;;;14.10;99.90;;;14.67;79.48;100431.63;4913355;29;20725;-66
2023/09/23 06:01:54;;;;;;;0.60;0.53;;;14.30;99.90;;;15.06;78.07;100440.25;4911515;29;20956;-66
2023/09/23 06:04:21;;;;;;;0.47;0.47;;;14.70;99.90;;;15.38;76.25;100445.94;4921422;29;20643;-66
2023/09/23 06:06:48;;;;;;;0.60;0.60;;;15.00;99.90;;;15.67;74.59;100447.63;4904644;29;21024;-67
2023/09/23 06:09:15;;;;;;;3.70;0.60;;;15.30;99.90;;;15.75;73.85;100448.56;4912522;29;20626;-68
2023/09/23 06:11:43;;;;;;;0.60;0.60;;;15.40;99.90;;;15.61;74.03;100448.22;4908459;29;20660;-66
2023/09/23 06:14:11;;;;;;;0.60;0.60;;;15.40;99.90;;;15.57;74.65;100444.25;4903434;29;20630;-66
2023/09/23 06:16:38;;;;;;;0.70;0.70;;;15.40;99.90;;;15.67;74.09;100451.09;4909295;29;21046;-64
2023/09/23 06:19:06;;;;;;;1.17;0.60;;;15.50;99.90;;;15.93;73.38;100456.47;4916473;29;21164;-67
2023/09/23 06:21:35;;;;;;;1.10;0.50;;;15.60;99.90;;;16.26;71.81;100450.53;4909486;29;21333;-66
2023/09/23 06:24:02;;;;;;;0.77;0.77;;;16.00;99.90;;;16.57;70.54;100467.63;4909204;29;20724;-68
2023/09/23 06:26:30;;;;;;;1.20;0.57;;;16.30;99.90;;;16.70;69.31;100473.31;4915200;29;20674;-65
2023/09/23 06:28:57;;;;;;;0.50;0.50;;;16.50;99.90;;;16.60;69.54;100472.59;4916582;29;20669;-68
2023/09/23 06:31:24;;;;;;;0.60;0.60;;;16.40;99.90;;;16.52;69.50;100472.53;4928795;29;20725;-67
2023/09/23 06:33:51;;;;;;;0.60;0.60;;;16.30;99.90;;;16.56;70.24;100481.78;4915995;29;20629;-67
2023/09/23 06:36:18;;;;;;;0.60;0.57;;;16.30;99.90;;;16.61;69.90;100490.03;4913813;29;21021;-67
2023/09/23 06:38:45;;;;;;;2.03;0.73;;;16.40;99.90;;;16.71;69.69;100493.44;4916268;29;21421;-67
2023/09/23 06:41:12;;;;;;;0.63;0.63;;;16.50;99.90;;;17.16;69.03;100506.44;4914137;29;20748;-68
2023/09/23 06:43:40;;;;;;;0.67;0.60;;;16.80;99.90;;;17.44;67.25;100502.63;4915476;29;20716;-67
2023/09/23 06:46:07;;;;;;;0.80;0.80;;;17.20;99.90;;;17.73;65.71;100510.22;4914333;29;20707;-66
2023/09/23 06:48:34;;;;;;;0.70;0.70;;;17.40;99.90;;;18.04;64.95;100510.50;4914604;29;20673;-66
2023/09/23 06:51:02;;;;;;;0.70;0.70;;;17.70;99.90;;;18.21;64.03;100523.56;4913725;29;20667;-67
2023/09/23 06:53:30;;;;;;;1.37;0.80;;;17.90;99.90;;;18.16;63.34;100525.06;4911889;29;21005;-67
2023/09/23 06:55:57;;;;;;;0.63;0.63;;;17.90;99.90;;;18.00;64.14;100517.91;4914217;29;21093;-68
2023/09/23 06:58:24;;;;;;;0.70;0.70;;;17.80;99.90;;;18.07;64.20;100529.50;4907030;29;20641;-68
2023/09/23 07:00:51;;;;;;;1.43;0.70;;;17.80;99.90;;;17.97;64.18;100526.16;4915547;29;20673;-68
2023/09/23 07:03:18;;;;;;;0.63;0.63;;;17.70;99.90;;;18.03;64.44;100528.16;4909673;29;20661;-67
2023/09/23 07:05:46;;;;;;;0.70;0.53;;;17.70;99.90;;;18.02;64.64;100528.28;4911259;29;20645;-67
2023/09/23 07:08:15;;;;;;;0.70;0.67;;;17.70;99.90;;;18.32;65.22;100525.91;4912876;29;20835;-67
2023/09/23 07:10:42;;;;;;;0.60;0.60;;;18.00;99.90;;;18.78;62.36;100528.97;4915392;29;20669;-67
2023/09/23 07:13:09;;;;;;;2.07;0.90;;;18.50;99.90;;;19.31;61.37;100531.88;4904919;29;21022;-67
2023/09/23 07:15:40;;;;;;;0.80;0.80;;;19.00;99.90;;;19.97;59.42;100540.31;4915331;29;20661;-67
2023/09/23 07:18:09;;;;;;;0.90;0.90;;;19.60;99.90;;;20.38;57.13;100540.91;4913369;29;20645;-67
2023/09/23 07:20:36;;;;;;;0.77;0.77;;;20.10;99.90;;;20.25;57.64;100534.56;4916380;29;20673;-67
2023/09/23 07:23:03;;;;;;;0.70;0.70;;;20.10;99.90;;;20.29;57.61;100534.03;4912002;29;20649;-67
2023/09/23 07:25:38;;;;;;;1.17;1.17;;;20.10;99.90;;;20.62;56.36;100540.75;4929542;29;20748;-67
2023/09/23 07:28:06;;;;;;;0.70;0.70;;;20.50;99.90;;;21.16;55.85;100540.66;4915450;29;20777;-69
2023/09/23 07:30:35;;;;;;;1.90;1.00;;;21.00;99.90;;;21.82;54.42;100545.94;4913356;29;20650;-67
2023/09/23 07:33:02;;;;;;;0.90;0.90;;;21.60;99.90;;;22.68;51.69;100545.09;4905750;29;20752;-67
2023/09/23 07:35:34;;;;;;;1.70;0.97;;;22.60;99.90;;;23.30;50.43;100547.88;4914567;29;20649;-67
2023/09/23 07:38:02;;;;;;;0.80;0.80;;;23.30;99.90;;;23.81;48.78;100562.53;4913130;29;20677;-68
2023/09/23 07:40:30;;;;;;;0.73;0.73;;;23.90;99.10;;;24.01;47.42;100562.63;4914295;29;20717;-67
2023/09/23 07:42:57;;;;;;;0.70;0.70;;;24.20;97.80;;;23.69;48.24;100556.94;4914244;29;20625;-69
2023/09/23 07:45:24;;;;;;;0.73;0.73;;;24.00;97.10;;;23.39;49.02;100562.69;4913197;29;20662;-67
2023/09/23 07:47:51;;;;;;;0.90;0.90;;;23.60;97.40;;;23.34;49.16;100565.13;4913508;29;21191;-67
2023/09/23 07:50:18;;;;;;;0.73;0.73;;;23.60;97.50;;;23.52;49.08;100571.59;4907200;29;20641;-67
2023/09/23 07:52:45;;;;;;;1.03;0.60;;;23.80;97.20;;;24.01;47.96;100571.44;4912646;29;20650;-68
2023/09/23 07:55:13;;;;;;;0.77;0.70;;;24.40;96.70;;;24.41;47.10;100570.59;4914547;29;20665;-67
2023/09/23 07:57:40;;;;;;;1.97;0.87;;;24.80;95.40;;;24.98;45.87;100583.44;4912245;29;20641;-67
2023/09/23 08:00:10;;;;;;;0.80;0.80;;;25.50;94.20;;;25.19;45.70;100587.78;4914993;29;20681;-67
2023/09/23 08:02:37;;;;;;;1.13;0.80;;;25.70;93.60;;;25.89;44.10;100595.91;4910482;29;20646;-67
2023/09/23 08:05:05;;;;;;;1.53;0.80;;;26.30;92.60;;;25.98;42.45;100602.66;4904992;29;20713;-66
2023/09/23 08:07:32;;;;;;;1.70;1.00;;;26.60;90.60;;;26.18;43.13;100599.94;4915220;29;20629;-66
2023/09/23 08:09:59;;;;;;;0.80;0.80;;;26.60;90.90;;;26.86;41.44;100617.91;4927164;29;20681;-66
2023/09/23 08:12:27;;;;;;;0.90;0.70;;;27.20;89.50;;;27.71;39.92;100620.94;4905886;29;20697;-66
2023/09/23 08:14:54;;;;;;;0.70;0.70;;;28.00;86.20;;;28.18;38.78;100615.69;4914328;29;20661;-64
2023/09/23 08:17:21;;;;;;;2.40;0.80;;;28.50;82.50;;;28.81;37.49;100620.66;4927314;29;21225;-65
2023/09/23 08:19:50;;;;;;;0.70;0.70;;;29.10;80.10;;;29.39;36.36;100615.41;4912074;29;20737;-66
2023/09/23 08:22:18;;;;;;;0.70;0.70;;;29.80;77.50;;;29.52;36.25;100618.66;4911570;29;20693;-69
2023/09/23 08:24:44;;;;;;;0.73;0.73;;;29.90;75.60;;;29.96;36.02;100616.44;4913293;29;20633;-67
2023/09/23 08:27:11;;;;;;;0.90;0.80;;;30.20;74.90;;;30.37;35.32;100625.13;4914349;29;20741;-69
2023/09/23 08:29:38;;;;;;;0.60;0.60;;;30.50;73.20;;;30.77;34.44;100640.41;4913176;29;20641;-66
2023/09/23 08:32:05;;;;;;;0.90;0.80;;;30.80;72.10;;;30.72;34.23;100643.84;4914917;29;20641;-66
2023/09/23 08:34:33;;;;;;;0.97;0.80;;;30.80;70.90;;;30.00;34.88;100642.63;4911019;29;20645;-66
2023/09/23 08:37:00;;;;;;;0.70;0.70;;;30.20;70.70;;;29.78;35.38;100639.75;4912343;29;20645;-68
2023/09/23 08:39:27;;;;;;;0.70;0.70;;;30.00;71.20;;;29.62;35.52;100648.47;4912096;29;20673;-67
2023/09/23 08:41:57;;;;;;;0.90;0.90;;;30.00;70.60;;;29.99;35.47;100649.06;4928259;29;20808;-66
2023/09/23 08:44:27;;;;;;;0.70;0.70;;;30.40;70.00;;;30.31;34.68;100655.69;4927075;29;20634;-68
2023/09/23 08:46:54;;;;;;;0.70;0.70;;;30.70;69.40;;;30.94;34.01;100647.50;4909792;29;20644;-68
2023/09/23 08:49:24;;;;;;;0.73;0.70;;;31.20;67.90;;;31.70;32.39;100646.03;4912001;29;20659;-68
2023/09/23 08:51:55;;;;;;;0.70;0.70;;;31.80;66.00;;;32.29;31.18;100649.81;4912293;29;20721;-66
2023/09/23 08:54:27;;;;;;;0.80;0.80;;;32.50;63.90;;;32.51;31.87;100646.06;4911405;29;20642;-66
2023/09/23 08:56:54;;;;;;;0.60;0.60;;;32.80;63.40;;;33.72;30.69;100649.03;4913600;29;20637;-69
2023/09/23 08:59:22;;;;;;;0.70;0.70;;;33.80;62.60;;;35.04;28.48;100660.13;4912791;29;20626;-66
2023/09/23 09:01:49;;;;;;;0.80;0.80;;;35.10;59.80;;;35.55;26.60;100658.22;4912654;29;20674;-66
2023/09/23 09:04:16;;;;;;;2.40;1.07;;;35.90;56.10;;;35.32;27.15;100665.03;4913745;29;20622;-66
2023/09/23 09:06:50;;;;;;;1.17;0.80;;;35.70;55.50;;;35.58;26.69;100669.38;4912365;29;20724;-68
2023/09/23 09:09:18;;;;;;;0.70;0.70;;;35.90;54.20;;;35.66;26.34;100668.81;4913456;29;20617;-66
2023/09/23 09:11:51;;;;;;;0.80;0.80;;;36.00;53.60;;;35.25;26.68;100669.06;4910121;29;20649;-67
2023/09/23 09:14:18;;;;;;;0.70;0.70;;;35.70;53.50;;;35.20;26.78;100669.09;4896643;29;20633;-65
2023/09/23 09:16:45;;;;;;;0.73;0.73;;;35.50;53.40;;;35.56;26.17;100671.56;4911596;29;20680;-67
2023/09/23 09:19:12;;;;;;;1.10;0.83;;;35.80;52.90;;;35.70;26.60;100669.88;4912547;29;20728;-68
2023/09/23 09:21:41;;;;;;;0.70;0.70;;;35.80;52.80;;;35.98;26.67;100668.47;4911033;29;20741;-67
2023/09/23 09:24:11;;;;;;;0.70;0.70;;;36.10;52.50;;;35.01;26.95;100669.63;4912848;29;20637;-66
2023/09/23 09:26:38;;;;;;;0.90;0.90;;;35.20;52.80;;;34.33;28.20;100661.84;4911669;29;20767;-66
2023/09/23 09:29:05;;;;;;;0.97;0.70;;;34.30;53.80;;;33.03;29.05;100667.16;4913203;29;20662;-66
2023/09/23 09:31:34;;;;;;;0.83;0.83;;;32.90;55.10;;;31.26;31.66;100662.03;4913177;29;21409;-66
2023/09/23 09:34:05;;;;;;;0.97;0.83;;;31.20;57.20;;;29.35;34.86;100657.22;4910690;29;20645;-65
2023/09/23 09:36:36;;;;;;;0.70;0.70;;;29.40;59.90;;;27.72;37.72;100654.75;4905991;29;20706;-67
2023/09/23 09:39:08;;;;;;;0.90;0.90;;;27.70;62.80;;;26.30;40.39;100650.94;4924061;29;20710;-66
2023/09/23 09:41:57;;;;;;;1.93;0.60;;;26.20;66.10;;;24.91;43.58;100651.19;4912253;29;20673;-66
2023/09/23 09:44:28;;;;;;;0.50;0.50;;;24.80;69.40;;;24.04;45.42;100645.72;4919500;29;20630;-65
2023/09/23 09:46:56;;;;;;;0.60;0.60;;;23.90;72.10;;;23.49;47.42;100643.88;4911068;29;20656;-65
2023/09/23 09:49:24;;;;;;;0.80;0.80;;;23.30;75.40;;;23.14;48.40;100642.13;4911280;29;20642;-64
2023/09/23 09:51:52;;;;;;;4.50;0.53;;;22.90;77.20;;;22.75;49.07;100636.41;4903174;29;20646;-66
2023/09/23 09:54:25;;;;;;;0.83;0.63;;;22.50;78.60;;;22.41;50.44;100637.03;4904302;29;21992;-66
2023/09/23 09:56:55;;;;;;;1.83;0.80;;;22.10;80.90;;;22.08;51.18;100641.09;4912112;29;20676;-67
2023/09/23 09:59:28;;;;;;;6.90;0.80;;;21.80;82.50;;;21.64;52.74;100635.72;4910246;29;20665;-65
2023/09/23 10:01:59;;;;;;;0.70;0.70;;;21.40;85.80;;;21.42;53.06;100637.44;4907593;29;21274;-66
2023/09/23 10:04:33;;;;;;;0.70;0.70;;;21.10;87.00;;;21.27;53.66;100641.91;4908698;29;20656;-66
2023/09/23 10:07:06;;;;;;;0.80;0.70;;;20.90;88.40;;;20.97;53.96;100632.16;4909189;29;20630;-68
2023/09/23 10:09:38;;;;;;;0.90;0.60;;;20.70;89.90;;;20.89;52.85;100626.91;4911100;29;20661;-69
2023/09/23 10:12:07;;;;;;;0.87;0.80;;;20.60;89.40;;;20.98;52.57;100633.78;4911776;29;20653;-68
2023/09/23 10:14:34;;;;;;;0.50;0.50;;;20.60;89.70;;;21.28;50.85;100622.31;4909141;29;20646;-66
2023/09/23 10:17:03;;;;;;;1.30;0.70;;;21.00;87.60;;;21.95;48.59;100630.28;4907661;29;20642;-65
2023/09/23 10:19:41;;;;;;;0.50;0.50;;;21.80;84.80;;;22.79;46.82;100640.34;4911306;29;20741;-66